Time;durP1;ratioP1;P1;durP2;ratioP2;P2;SDS_P1;SDS_P2;PMS_P1;PMS_P2;Temp;Humidity;BMP_temperature;BMP_pressure;BME280_temperature;BME280_humidity;BME280_pressure;Samples;Min_cycle;Max_cycle;Signal;HPM_P1;HPM_P2
2022/11/04 00:02:15;;;;;;;19.45;9.50;;;;;;;;;;6320737;22;20168;-88
2022/11/04 00:05:22;;;;;;;29.63;8.80;;;;;;;;;;6319825;22;20164;-89
2022/11/04 00:08:28;;;;;;;19.52;9.38;;;;;;;;;;6315725;22;20172;-88
2022/11/04 00:17:18;;;;;;;26.65;11.55;;;;;;;;;;6313532;22;20469;-89
2022/11/04 00:18:21;;;;;;;23.30;10.55;;;;;;;;;;6329416;22;20204;-87
2022/11/04 00:34:59;;;;;;;25.92;11.18;;;;;;;;;;6311506;22;20193;-90
2022/11/04 00:38:05;;;;;;;24.48;10.20;;;;;;;;;;6311916;22;20639;-89
2022/11/04 00:44:31;;;;;;;16.88;8.65;;;;;;;;;;6310679;22;20165;-86
2022/11/04 00:47:36;;;;;;;21.35;7.88;;;;;;;;;;6311540;22;20169;-87
2022/11/04 00:50:42;;;;;;;19.67;8.50;;;;;;;;;;6313394;22;20720;-88
2022/11/04 00:53:50;;;;;;;22.00;8.60;;;;;;;;;;6313511;22;20173;-88
2022/11/04 00:56:55;;;;;;;21.33;8.25;;;;;;;;;;6314154;22;20176;-88
2022/11/04 01:00:00;;;;;;;14.35;7.68;;;;;;;;;;6313746;22;20169;-88
2022/11/04 01:03:05;;;;;;;17.27;7.75;;;;;;;;;;6313545;22;20414;-87
2022/11/04 01:06:11;;;;;;;16.90;7.78;;;;;;;;;;6313972;22;20168;-88
2022/11/04 01:09:17;;;;;;;16.25;8.10;;;;;;;;;;6313283;22;20215;-88
2022/11/04 01:12:22;;;;;;;15.00;8.00;;;;;;;;;;6314040;22;20173;-88
2022/11/04 01:15:28;;;;;;;15.32;7.35;;;;;;;;;;6314065;22;20270;-87
2022/11/04 01:18:34;;;;;;;19.52;8.20;;;;;;;;;;6313489;22;20205;-88
2022/11/04 01:21:39;;;;;;;15.65;7.75;;;;;;;;;;6313081;22;20173;-88
2022/11/04 01:24:45;;;;;;;17.52;8.07;;;;;;;;;;6317769;22;20165;-86
2022/11/04 01:27:51;;;;;;;16.63;7.65;;;;;;;;;;6319036;22;20228;-88
2022/11/04 01:30:56;;;;;;;19.67;7.47;;;;;;;;;;6323230;22;20193;-88
2022/11/04 01:34:02;;;;;;;17.42;7.38;;;;;;;;;;6325453;22;20204;-88
2022/11/04 01:37:07;;;;;;;17.30;7.40;;;;;;;;;;6326871;22;20191;-87
2022/11/04 01:40:15;;;;;;;18.60;6.35;;;;;;;;;;6326476;22;20248;-87
2022/11/04 01:43:21;;;;;;;14.57;6.22;;;;;;;;;;6318595;22;20573;-87
2022/11/04 01:46:33;;;;;;;13.07;6.50;;;;;;;;;;6323949;22;20180;-88
2022/11/04 01:49:39;;;;;;;16.15;6.63;;;;;;;;;;6330473;22;20226;-86
2022/11/04 01:52:46;;;;;;;13.90;6.38;;;;;;;;;;6332034;22;20250;-87
2022/11/04 01:55:54;;;;;;;22.10;6.97;;;;;;;;;;6326879;22;20192;-87
2022/11/04 01:59:06;;;;;;;16.50;7.13;;;;;;;;;;6331928;22;20192;-87
2022/11/04 02:02:12;;;;;;;19.42;6.75;;;;;;;;;;6331645;22;20162;-86
2022/11/04 02:05:17;;;;;;;14.57;6.13;;;;;;;;;;6325774;22;20187;-87
2022/11/04 02:08:23;;;;;;;13.13;5.63;;;;;;;;;;6325230;22;20170;-87
2022/11/04 02:14:54;;;;;;;11.60;6.10;;;;;;;;;;6312616;22;20216;-88
2022/11/04 02:18:24;;;;;;;18.52;5.80;;;;;;;;;;6313001;22;20173;-88
2022/11/04 02:21:36;;;;;;;11.40;6.05;;;;;;;;;;6312295;22;20184;-88
2022/11/04 02:24:49;;;;;;;19.30;6.70;;;;;;;;;;6312381;22;20237;-88
2022/11/04 02:28:03;;;;;;;14.25;6.80;;;;;;;;;;6312709;22;20204;-87
2022/11/04 02:31:14;;;;;;;16.58;7.03;;;;;;;;;;6312274;22;20495;-88
2022/11/04 02:34:22;;;;;;;19.80;7.55;;;;;;;;;;6313130;22;20204;-88
2022/11/04 02:37:33;;;;;;;14.82;6.90;;;;;;;;;;6314996;22;20165;-88
2022/11/04 02:40:41;;;;;;;15.85;7.18;;;;;;;;;;6330171;22;20192;-88
2022/11/04 02:43:53;;;;;;;14.35;7.00;;;;;;;;;;6311743;22;20176;-88
2022/11/04 02:47:01;;;;;;;14.70;7.47;;;;;;;;;;6311951;22;20169;-88
2022/11/04 02:50:10;;;;;;;14.88;7.43;;;;;;;;;;6312119;22;20169;-89
2022/11/04 02:53:17;;;;;;;16.50;7.07;;;;;;;;;;6312773;22;20205;-88
2022/11/04 02:56:23;;;;;;;17.52;7.72;;;;;;;;;;6312373;22;20219;-89
2022/11/04 02:59:32;;;;;;;13.25;7.60;;;;;;;;;;6326559;22;20173;-88
2022/11/04 03:02:42;;;;;;;18.65;7.75;;;;;;;;;;6326486;22;20513;-88
2022/11/04 03:05:49;;;;;;;15.43;7.55;;;;;;;;;;6324053;22;20169;-88
2022/11/04 03:08:55;;;;;;;21.15;7.30;;;;;;;;;;6318552;22;20219;-88
2022/11/04 03:12:02;;;;;;;16.30;7.50;;;;;;;;;;6331645;22;20161;-87
2022/11/04 03:15:09;;;;;;;15.30;7.00;;;;;;;;;;6311518;22;20196;-88
2022/11/04 03:18:20;;;;;;;15.00;6.45;;;;;;;;;;6312396;22;20173;-89
2022/11/04 03:21:26;;;;;;;16.92;6.95;;;;;;;;;;6311755;22;20165;-89
2022/11/04 03:24:32;;;;;;;12.20;6.82;;;;;;;;;;6311508;22;20168;-89
2022/11/04 03:27:43;;;;;;;16.23;7.45;;;;;;;;;;6311865;22;20177;-89
2022/11/04 03:30:50;;;;;;;15.15;7.18;;;;;;;;;;6310990;22;20168;-89
2022/11/04 03:33:58;;;;;;;13.88;6.97;;;;;;;;;;6311320;22;20173;-89
2022/11/04 03:37:05;;;;;;;11.80;6.60;;;;;;;;;;6311432;22;20223;-89
2022/11/04 03:40:12;;;;;;;13.73;7.07;;;;;;;;;;6311647;22;20188;-89
2022/11/04 03:43:20;;;;;;;14.15;6.80;;;;;;;;;;6311197;22;20169;-89
2022/11/04 03:46:27;;;;;;;14.05;6.85;;;;;;;;;;6311240;22;20165;-89
2022/11/04 03:49:34;;;;;;;14.90;6.88;;;;;;;;;;6311666;22;20169;-89
2022/11/04 03:52:39;;;;;;;15.23;6.75;;;;;;;;;;6311428;22;20283;-88
2022/11/04 03:55:50;;;;;;;20.42;7.63;;;;;;;;;;6329692;22;20200;-88
2022/11/04 03:59:03;;;;;;;13.75;6.93;;;;;;;;;;6311731;22;20292;-89
2022/11/04 04:02:13;;;;;;;13.98;7.03;;;;;;;;;;6311425;22;20184;-89
2022/11/04 04:05:21;;;;;;;15.15;6.88;;;;;;;;;;6310560;22;20238;-88
2022/11/04 04:08:32;;;;;;;13.73;7.25;;;;;;;;;;6311886;22;20187;-89
2022/11/04 04:11:43;;;;;;;15.50;7.57;;;;;;;;;;6311460;22;20430;-89
2022/11/04 04:14:51;;;;;;;13.65;7.38;;;;;;;;;;6311677;22;20270;-89
2022/11/04 04:18:00;;;;;;;15.55;7.88;;;;;;;;;;6311494;22;20220;-89
2022/11/04 04:21:10;;;;;;;16.15;7.38;;;;;;;;;;6310960;22;20256;-89
2022/11/04 04:27:50;;;;;;;17.88;7.00;;;;;;;;;;6263018;22;20181;-88
2022/11/04 04:30:55;;;;;;;15.20;5.97;;;;;;;;;;6313841;22;20192;-88
2022/11/04 04:34:00;;;;;;;15.32;5.22;;;;;;;;;;6313486;22;20231;-88
2022/11/04 04:37:09;;;;;;;11.27;5.50;;;;;;;;;;6314769;22;20579;-88
2022/11/04 04:47:04;;;;;;;9.32;5.15;;;;;;;;;;6314627;22;20216;-87
2022/11/04 04:50:11;;;;;;;13.30;6.50;;;;;;;;;;6314920;22;20287;-87
2022/11/04 04:53:17;;;;;;;17.30;6.60;;;;;;;;;;6315594;22;20168;-88
2022/11/04 04:56:22;;;;;;;14.27;6.03;;;;;;;;;;6315662;22;20197;-88
2022/11/04 04:59:28;;;;;;;12.02;6.15;;;;;;;;;;6313642;22;20610;-89
2022/11/04 05:02:33;;;;;;;13.63;6.18;;;;;;;;;;6312924;22;20404;-89
2022/11/04 05:05:39;;;;;;;15.43;6.47;;;;;;;;;;6314110;22;20166;-87
2022/11/04 05:08:46;;;;;;;14.15;6.45;;;;;;;;;;6314061;22;20400;-87
2022/11/04 05:11:51;;;;;;;13.95;6.85;;;;;;;;;;6332014;22;20434;-89
2022/11/04 05:14:56;;;;;;;12.10;6.20;;;;;;;;;;6313210;22;20174;-89
2022/11/04 05:18:04;;;;;;;13.93;6.15;;;;;;;;;;6313605;22;20168;-89
2022/11/04 05:21:11;;;;;;;15.77;6.38;;;;;;;;;;6334460;22;20177;-89
2022/11/04 05:24:18;;;;;;;13.02;6.57;;;;;;;;;;6334816;22;20226;-88
2022/11/04 05:27:23;;;;;;;19.63;7.32;;;;;;;;;;6336044;22;20165;-88
2022/11/04 05:30:29;;;;;;;13.35;6.55;;;;;;;;;;6336897;22;20153;-88
2022/11/04 05:33:35;;;;;;;14.95;6.78;;;;;;;;;;6334865;22;20173;-88
2022/11/04 05:36:42;;;;;;;16.17;6.90;;;;;;;;;;6337042;22;20219;-88
2022/11/04 05:39:49;;;;;;;12.80;6.85;;;;;;;;;;6337117;22;20172;-86
2022/11/04 09:20:30;;;;;;;0.70;0.68;;;;;;;;;;6234401;22;20208;-93
2022/11/04 09:23:36;;;;;;;0.40;0.40;;;;;;;;;;6357761;22;20196;-92
2022/11/04 09:26:43;;;;;;;0.30;0.30;;;;;;;;;;6358099;22;20204;-92
2022/11/04 09:29:48;;;;;;;3.20;2.65;;;;;;;;;;6357405;22;20148;-90
2022/11/04 09:32:54;;;;;;;6.85;1.42;;;;;;;;;;6356879;22;20168;-92
2022/11/04 09:36:01;;;;;;;5.47;2.20;;;;;;;;;;6357778;22;20171;-92
2022/11/04 09:39:09;;;;;;;0.25;0.25;;;;;;;;;;6360549;22;20316;-92
2022/11/04 09:42:22;;;;;;;0.63;0.63;;;;;;;;;;6356361;22;20252;-92
2022/11/04 09:45:29;;;;;;;0.38;0.38;;;;;;;;;;6356427;22;20271;-93
2022/11/04 09:48:39;;;;;;;0.30;0.30;;;;;;;;;;6355028;22;20161;-91
2022/11/04 09:51:47;;;;;;;0.32;0.32;;;;;;;;;;6355857;22;20215;-92
2022/11/04 09:54:57;;;;;;;0.65;0.65;;;;;;;;;;6356904;22;20163;-92
2022/11/04 09:58:03;;;;;;;0.90;0.90;;;;;;;;;;6355207;22;20211;-93
2022/11/04 10:01:17;;;;;;;1.98;1.00;;;;;;;;;;6356825;22;20203;-92
2022/11/04 10:04:26;;;;;;;0.32;0.32;;;;;;;;;;6359923;22;20165;-88
2022/11/04 10:07:39;;;;;;;0.40;0.40;;;;;;;;;;6360471;22;20247;-93
2022/11/04 10:10:49;;;;;;;0.30;0.30;;;;;;;;;;6357239;22;20165;-91
2022/11/04 10:14:07;;;;;;;8.10;0.60;;;;;;;;;;6356802;22;20173;-94
2022/11/04 10:17:21;;;;;;;0.68;0.60;;;;;;;;;;6354316;22;20299;-94
2022/11/04 10:20:34;;;;;;;0.45;0.45;;;;;;;;;;6358743;22;20175;-92
2022/11/04 10:23:44;;;;;;;0.68;0.68;;;;;;;;;;6360569;22;20217;-93
2022/11/04 10:27:00;;;;;;;0.80;0.80;;;;;;;;;;6357647;22;20176;-91
2022/11/04 10:30:11;;;;;;;0.30;0.30;;;;;;;;;;6357796;22;20168;-95
2022/11/04 10:33:30;;;;;;;0.32;0.32;;;;;;;;;;6359582;22;20241;-91
2022/11/04 10:36:36;;;;;;;0.30;0.30;;;;;;;;;;6357513;22;20246;-92
2022/11/04 10:39:45;;;;;;;0.32;0.32;;;;;;;;;;6358498;22;20214;-92
2022/11/04 10:42:54;;;;;;;0.60;0.60;;;;;;;;;;6357522;22;20161;-93
2022/11/04 10:46:10;;;;;;;0.65;0.65;;;;;;;;;;6354013;22;20169;-90
2022/11/04 10:49:32;;;;;;;0.45;0.45;;;;;;;;;;6359045;22;20160;-92
2022/11/04 10:52:38;;;;;;;0.60;0.60;;;;;;;;;;6357411;22;20165;-93
2022/11/04 10:55:48;;;;;;;3.83;0.55;;;;;;;;;;6352347;22;20168;-93
2022/11/04 10:58:54;;;;;;;0.40;0.40;;;;;;;;;;6352423;22;20169;-93
2022/11/04 11:02:00;;;;;;;0.57;0.57;;;;;;;;;;6355593;22;20198;-92
2022/11/04 11:05:22;;;;;;;0.47;0.47;;;;;;;;;;6357601;22;20182;-91
2022/11/04 11:08:31;;;;;;;0.40;0.40;;;;;;;;;;6354697;22;20148;-92
2022/11/04 11:11:40;;;;;;;0.30;0.30;;;;;;;;;;6353321;22;20172;-93
2022/11/04 11:14:47;;;;;;;0.65;0.50;;;;;;;;;;6357653;22;20157;-92
2022/11/04 11:17:53;;;;;;;0.57;0.57;;;;;;;;;;6356950;22;20194;-92
2022/11/04 11:21:10;;;;;;;0.30;0.30;;;;;;;;;;6357673;22;20192;-91
2022/11/04 11:24:21;;;;;;;0.30;0.30;;;;;;;;;;6356922;22;20168;-92
2022/11/04 11:27:29;;;;;;;1.27;1.00;;;;;;;;;;6356706;22;20169;-92
2022/11/04 11:30:40;;;;;;;1.45;1.27;;;;;;;;;;6355859;22;20164;-90
2022/11/04 11:37:31;;;;;;;0.75;0.75;;;;;;;;;;6359398;22;20257;-93
2022/11/04 11:40:38;;;;;;;0.57;0.57;;;;;;;;;;6353981;22;20148;-94
2022/11/04 11:43:46;;;;;;;0.80;0.68;;;;;;;;;;6355054;22;20169;-92
2022/11/04 11:47:03;;;;;;;0.68;0.68;;;;;;;;;;6354497;22;20187;-92
2022/11/04 11:50:18;;;;;;;0.50;0.50;;;;;;;;;;6357487;22;20207;-92
2022/11/04 11:53:24;;;;;;;3.10;1.15;;;;;;;;;;6356359;22;20173;-92
2022/11/04 11:56:34;;;;;;;0.65;0.65;;;;;;;;;;6355960;22;20192;-93
2022/11/04 11:59:44;;;;;;;8.70;0.82;;;;;;;;;;6355455;22;20627;-95
2022/11/04 12:02:54;;;;;;;0.70;0.70;;;;;;;;;;6356049;22;20222;-90
2022/11/04 12:06:19;;;;;;;0.30;0.30;;;;;;;;;;6357902;22;20292;-92
2022/11/04 12:09:28;;;;;;;0.52;0.52;;;;;;;;;;6355725;22;20183;-90
2022/11/04 12:12:47;;;;;;;0.35;0.35;;;;;;;;;;6355843;22;20168;-92
2022/11/04 12:16:09;;;;;;;0.40;0.40;;;;;;;;;;6356630;22;20169;-91
2022/11/04 12:19:28;;;;;;;0.45;0.45;;;;;;;;;;6357353;22;20232;-91
2022/11/04 12:22:40;;;;;;;2.50;1.73;;;;;;;;;;6357901;22;20179;-90
2022/11/04 12:25:50;;;;;;;0.30;0.30;;;;;;;;;;6358277;22;20168;-92
2022/11/04 12:29:12;;;;;;;0.40;0.40;;;;;;;;;;6355758;22;20615;-92
2022/11/04 12:32:34;;;;;;;0.40;0.40;;;;;;;;;;6357082;22;20218;-92
2022/11/04 12:35:46;;;;;;;0.70;0.70;;;;;;;;;;6356888;22;20152;-91
2022/11/04 12:39:01;;;;;;;2.67;0.98;;;;;;;;;;6356494;22;20191;-93
2022/11/04 12:42:14;;;;;;;0.60;0.60;;;;;;;;;;6357653;22;20220;-91
2022/11/04 12:45:25;;;;;;;1.05;1.02;;;;;;;;;;6359155;22;20184;-91
2022/11/04 12:48:35;;;;;;;0.40;0.40;;;;;;;;;;6357514;22;20183;-91
2022/11/04 12:51:58;;;;;;;1.08;0.77;;;;;;;;;;6359273;22;20148;-95
2022/11/04 12:59:14;;;;;;;0.63;0.63;;;;;;;;;;6354111;22;20207;-90
2022/11/04 13:02:23;;;;;;;0.40;0.40;;;;;;;;;;6361507;22;20152;-91
2022/11/04 13:05:39;;;;;;;0.43;0.43;;;;;;;;;;6356507;22;20180;-91
2022/11/04 13:08:59;;;;;;;0.50;0.50;;;;;;;;;;6357797;22;20163;-92
2022/11/04 13:12:08;;;;;;;0.50;0.50;;;;;;;;;;6355207;22;20161;-89
2022/11/04 13:15:33;;;;;;;1.73;0.95;;;;;;;;;;6358368;22;20168;-93
2022/11/04 13:18:41;;;;;;;0.40;0.40;;;;;;;;;;6355920;22;20272;-92
2022/11/04 13:21:47;;;;;;;0.98;0.88;;;;;;;;;;6356271;22;20187;-91
2022/11/04 13:24:56;;;;;;;5.88;1.65;;;;;;;;;;6354101;22;20176;-94
2022/11/04 13:28:01;;;;;;;0.82;0.80;;;;;;;;;;6354757;22;20152;-94
